Time;durP1;ratioP1;P1;durP2;ratioP2;P2;SDS_P1;SDS_P2;PMS_P1;PMS_P2;Temp;Humidity;BMP_temperature;BMP_pressure;BME280_temperature;BME280_humidity;BME280_pressure;Samples;Min_cycle;Max_cycle;Signal;HPM_P1;HPM_P2
2023/01/29 00:02:22;;;;;;;;;;;;;;;3.16;77.97;95299.78;5033359;28;1225;-52
2023/01/29 00:04:48;;;;;;;;;;;;;;;3.17;78.84;95301.47;5033592;28;1205;-52
2023/01/29 00:07:14;;;;;;;;;;;;;;;3.21;77.01;95302.94;5033214;28;1910;-52
2023/01/29 00:09:40;;;;;;;;;;;;;;;3.23;77.41;95304.50;5033409;28;1132;-52
2023/01/29 00:12:09;;;;;;;;;;;;;;;3.24;77.49;95300.88;5033270;28;1044;-52
2023/01/29 00:14:35;;;;;;;;;;;;;;;3.20;77.22;95304.72;5033265;28;1033;-52
2023/01/29 00:17:01;;;;;;;;;;;;;;;3.20;77.61;95302.06;5033517;28;954;-52
2023/01/29 00:19:27;;;;;;;;;;;;;;;3.19;77.71;95308.34;5033355;28;967;-52
2023/01/29 00:21:53;;;;;;;;;;;;;;;3.23;76.81;95306.31;5033208;28;1276;-52
2023/01/29 00:24:19;;;;;;;;;;;;;;;3.15;76.44;95309.53;5033099;28;1090;-52
2023/01/29 00:26:45;;;;;;;;;;;;;;;3.12;77.38;95315.84;5033226;28;1997;-52
2023/01/29 00:29:11;;;;;;;;;;;;;;;3.16;76.41;95313.81;5033061;28;974;-52
2023/01/29 00:31:37;;;;;;;;;;;;;;;3.08;76.61;95324.13;5033327;28;1542;-52
2023/01/29 00:34:03;;;;;;;;;;;;;;;3.03;77.14;95302.47;5033289;28;993;-52
2023/01/29 00:36:29;;;;;;;;;;;;;;;3.04;76.07;95309.44;5033064;28;1098;-52
2023/01/29 00:38:57;;;;;;;;;;;;;;;3.07;76.31;95314.50;5033081;28;1038;-52
2023/01/29 00:46:59;;;;;;;;;;;;;;;3.02;77.46;95314.84;5032931;28;1977;-52
2023/01/29 00:49:25;;;;;;;;;;;;;;;2.97;77.62;95318.78;5033068;28;1301;-52
2023/01/29 00:52:25;;;;;;;;;;;;;;;3.06;75.63;95318.09;5033007;28;985;-52
2023/01/29 00:54:44;;;;;;;;;;;;;;;3.14;75.91;95313.09;5030979;28;1723;-52
2023/01/29 00:57:10;;;;;;;;;;;;;;;3.22;75.37;95317.81;5032837;28;1054;-52
2023/01/29 00:59:36;;;;;;;;;;;;;;;3.16;75.54;95310.34;5032929;28;1046;-52
2023/01/29 01:04:46;;;;;;;;;;;;;;;3.13;75.40;95314.91;5032869;28;1075;-52
2023/01/29 01:07:12;;;;;;;;;;;;;;;3.07;76.04;95322.41;5032892;28;1917;-52
2023/01/29 01:12:22;;;;;;;;;;;;;;;3.08;76.78;95305.63;5036465;28;1040;-52
2023/01/29 01:14:49;;;;;;;;;;;;;;;3.17;75.93;95314.66;5036469;28;970;-52
2023/01/29 01:17:15;;;;;;;;;;;;;;;3.17;76.46;95317.31;5036259;28;1061;-52
2023/01/29 01:19:41;;;;;;;;;;;;;;;3.16;75.79;95313.81;5036535;28;1065;-52
2023/01/29 01:22:07;;;;;;;;;;;;;;;3.18;75.79;95321.66;5036425;28;1208;-52
2023/01/29 01:24:33;;;;;;;;;;;;;;;3.23;75.89;95314.25;5036193;28;1061;-52
2023/01/29 01:26:59;;;;;;;;;;;;;;;3.23;74.86;95317.72;5036221;28;1993;-52
2023/01/29 01:29:25;;;;;;;;;;;;;;;3.14;76.12;95321.03;5036046;28;1054;-52
2023/01/29 01:31:52;;;;;;;;;;;;;;;3.10;76.29;95314.28;5035907;28;1606;-52
2023/01/29 01:34:18;;;;;;;;;;;;;;;3.06;76.93;95315.47;5036234;28;1037;-52
2023/01/29 01:36:44;;;;;;;;;;;;;;;3.08;77.05;95314.38;5036052;28;1121;-52
2023/01/29 01:39:10;;;;;;;;;;;;;;;3.10;76.31;95319.56;5035869;28;1041;-52
2023/01/29 01:41:36;;;;;;;;;;;;;;;3.17;76.46;95318.19;5035926;28;1112;-52
2023/01/29 01:44:03;;;;;;;;;;;;;;;3.13;76.52;95322.84;5034709;28;1053;-52
2023/01/29 01:46:29;;;;;;;;;;;;;;;3.10;76.42;95316.94;5035760;28;966;-52
2023/01/29 01:49:16;;;;;;;;;;;;;;;3.07;76.39;95325.06;5035991;28;1906;-52
2023/01/29 01:51:44;;;;;;;;;;;;;;;3.05;76.20;95322.53;5035599;28;1166;-52
2023/01/29 01:54:19;;;;;;;;;;;;;;;3.03;77.31;95328.88;5035773;28;1053;-52
2023/01/29 01:56:49;;;;;;;;;;;;;;;3.10;76.03;95330.97;5035751;28;1064;-52
2023/01/29 01:59:17;;;;;;;;;;;;;;;3.12;75.62;95323.78;5035291;28;1026;-52
2023/01/29 02:01:48;;;;;;;;;;;;;;;3.15;76.76;95317.44;5035774;28;1052;-52
2023/01/29 02:09:53;;;;;;;;;;;;;;;3.07;76.40;95325.06;5035688;28;962;-52
2023/01/29 02:12:19;;;;;;;;;;;;;;;3.14;76.14;95323.66;5035234;28;938;-52
2023/01/29 02:14:46;;;;;;;;;;;;;;;3.11;77.02;95323.88;5035308;28;1140;-52
2023/01/29 02:17:13;;;;;;;;;;;;;;;3.12;77.05;95333.50;5035325;28;973;-52
2023/01/29 02:19:55;;;;;;;;;;;;;;;2.95;77.39;95332.09;5035212;28;970;-52
2023/01/29 02:22:39;;;;;;;;;;;;;;;2.80;76.72;95325.25;5034721;28;986;-52
2023/01/29 02:25:24;;;;;;;;;;;;;;;2.76;77.73;95329.06;5034957;28;1022;-52
2023/01/29 02:27:53;;;;;;;;;;;;;;;2.80;78.78;95334.03;5035023;28;1981;-52
2023/01/29 02:30:39;;;;;;;;;;;;;;;2.86;78.09;95338.84;5034876;28;998;-52
2023/01/29 02:33:27;;;;;;;;;;;;;;;2.79;77.57;95336.75;5034733;28;1911;-52
2023/01/29 02:36:17;;;;;;;;;;;;;;;2.77;78.81;95331.63;5034886;28;1061;-52
2023/01/29 02:38:49;;;;;;;;;;;;;;;2.72;78.30;95336.38;5034798;28;1132;-51
2023/01/29 02:41:15;;;;;;;;;;;;;;;2.73;78.49;95332.75;5034969;28;970;-51
2023/01/29 02:43:46;;;;;;;;;;;;;;;2.74;78.16;95326.53;5034710;28;1110;-52
2023/01/29 02:46:27;;;;;;;;;;;;;;;2.87;78.10;95334.44;5034789;28;988;-52
2023/01/29 02:49:08;;;;;;;;;;;;;;;2.89;78.80;95333.38;5034605;28;2005;-52
2023/01/29 02:51:34;;;;;;;;;;;;;;;2.89;80.88;95325.44;5034532;28;1085;-51
2023/01/29 02:54:07;;;;;;;;;;;;;;;2.95;80.72;95333.88;5034493;28;1061;-51
2023/01/29 02:56:43;;;;;;;;;;;;;;;2.89;79.60;95336.00;5033775;28;974;-52
2023/01/29 02:59:15;;;;;;;;;;;;;;;2.91;80.30;95334.09;5034446;28;1025;-52
2023/01/29 03:01:45;;;;;;;;;;;;;;;2.90;79.87;95345.63;5034407;28;966;-52
2023/01/29 03:04:15;;;;;;;;;;;;;;;2.87;80.13;95343.19;5034506;28;1064;-52
2023/01/29 03:06:44;;;;;;;;;;;;;;;2.87;80.01;95345.84;5034819;28;966;-52
2023/01/29 03:09:15;;;;;;;;;;;;;;;2.81;81.57;95351.56;5034230;28;1985;-52
2023/01/29 03:11:44;;;;;;;;;;;;;;;2.70;82.51;95348.84;5034206;28;1038;-52
2023/01/29 03:17:36;;;;;;;;;;;;;;;2.47;83.37;95346.00;4973163;28;1568;-52
2023/01/29 03:20:06;;;;;;;;;;;;;;;2.57;84.53;95354.13;4972891;28;1058;-52
2023/01/29 03:22:34;;;;;;;;;;;;;;;2.66;83.19;95356.13;5012630;28;1088;-52
2023/01/29 03:33:26;;;;;;;;;;;;;;;2.53;83.62;95357.94;5033489;28;1531;-52
2023/01/29 03:35:55;;;;;;;;;;;;;;;2.53;82.83;95357.94;5033956;28;1044;-52
2023/01/29 03:38:21;;;;;;;;;;;;;;;2.60;83.13;95363.63;5033556;28;1260;-51
2023/01/29 03:40:55;;;;;;;;;;;;;;;2.46;84.12;95365.44;5033729;28;1112;-52
2023/01/29 03:43:39;;;;;;;;;;;;;;;2.51;84.63;95363.31;5033639;28;1026;-52
2023/01/29 03:46:28;;;;;;;;;;;;;;;2.60;84.60;95369.75;5033789;28;1032;-52
2023/01/29 03:48:59;;;;;;;;;;;;;;;2.59;83.86;95362.78;5033462;28;1997;-52
2023/01/29 03:51:32;;;;;;;;;;;;;;;2.49;83.53;95367.88;5033598;28;1067;-52
2023/01/29 03:54:01;;;;;;;;;;;;;;;2.49;85.34;95362.59;5033559;28;1188;-52
2023/01/29 03:56:30;;;;;;;;;;;;;;;2.54;84.13;95364.88;5033413;28;1132;-52
2023/01/29 03:59:00;;;;;;;;;;;;;;;2.53;83.98;95369.34;5033692;28;1025;-52
2023/01/29 04:01:37;;;;;;;;;;;;;;;2.48;83.90;95373.25;5033522;28;1191;-52
2023/01/29 04:04:22;;;;;;;;;;;;;;;2.52;83.90;95365.03;5033550;28;973;-52
2023/01/29 04:06:49;;;;;;;;;;;;;;;2.62;84.89;95369.63;5033571;28;1209;-52
2023/01/29 04:09:22;;;;;;;;;;;;;;;2.65;84.65;95369.44;5033452;28;2022;-51
2023/01/29 04:11:55;;;;;;;;;;;;;;;2.64;84.62;95371.22;5032347;28;1006;-52
2023/01/29 04:14:21;;;;;;;;;;;;;;;2.48;84.82;95367.97;5032159;28;966;-52
2023/01/29 04:16:50;;;;;;;;;;;;;;;2.48;85.63;95371.44;5033371;28;1009;-52
2023/01/29 04:19:16;;;;;;;;;;;;;;;2.52;86.29;95370.31;5033192;28;997;-52
2023/01/29 04:21:44;;;;;;;;;;;;;;;2.58;84.95;95376.94;5033470;28;966;-52
2023/01/29 04:24:11;;;;;;;;;;;;;;;2.59;84.54;95375.16;5033258;28;1048;-52
2023/01/29 04:26:37;;;;;;;;;;;;;;;2.63;84.79;95371.34;5033378;28;993;-52
2023/01/29 04:29:22;;;;;;;;;;;;;;;2.68;85.45;95377.97;5033106;28;1899;-51
2023/01/29 04:31:48;;;;;;;;;;;;;;;2.70;83.43;95369.97;5032989;28;1478;-51
2023/01/29 04:34:32;;;;;;;;;;;;;;;2.64;83.68;95373.03;5033280;28;1029;-52
2023/01/29 04:36:59;;;;;;;;;;;;;;;2.73;81.81;95377.66;5032904;28;1110;-52
2023/01/29 04:39:28;;;;;;;;;;;;;;;2.68;81.82;95382.44;5033119;28;1037;-52
2023/01/29 04:42:12;;;;;;;;;;;;;;;2.69;81.20;95384.09;5033109;28;1101;-51
2023/01/29 04:44:48;;;;;;;;;;;;;;;2.67;80.45;95380.72;5035300;28;1014;-50
2023/01/29 04:47:20;;;;;;;;;;;;;;;2.68;80.91;95379.78;5036950;28;1917;-51
2023/01/29 04:50:16;;;;;;;;;;;;;;;2.72;79.85;95383.91;5037017;28;1243;-51
2023/01/29 04:52:49;;;;;;;;;;;;;;;2.79;79.32;95386.94;5019964;28;1350;-51
2023/01/29 04:55:45;;;;;;;;;;;;;;;2.72;80.06;95394.47;5037037;28;1036;-51
2023/01/29 04:58:15;;;;;;;;;;;;;;;2.64;79.76;95387.06;5019833;28;1325;-51
2023/01/29 05:00:45;;;;;;;;;;;;;;;2.62;80.28;95388.13;5036616;28;1102;-51
2023/01/29 05:03:13;;;;;;;;;;;;;;;2.68;80.04;95388.53;5036594;28;1058;-51
2023/01/29 05:05:40;;;;;;;;;;;;;;;2.77;79.23;95387.06;5036473;28;1046;-51
2023/01/29 05:08:08;;;;;;;;;;;;;;;2.58;79.29;95384.88;5036689;28;1918;-51
2023/01/29 05:10:34;;;;;;;;;;;;;;;2.60;79.88;95385.59;5036452;28;918;-51
2023/01/29 05:13:02;;;;;;;;;;;;;;;2.65;79.89;95393.19;5036551;28;969;-51
2023/01/29 05:15:32;;;;;;;;;;;;;;;2.67;79.20;95389.47;5036404;28;1129;-51
2023/01/29 05:18:01;;;;;;;;;;;;;;;2.62;79.72;95390.75;5036649;28;985;-51
2023/01/29 05:20:32;;;;;;;;;;;;;;;2.57;79.30;95391.09;5036470;28;1041;-51
2023/01/29 05:22:58;;;;;;;;;;;;;;;2.56;80.40;95392.03;5036407;28;973;-51
2023/01/29 05:25:26;;;;;;;;;;;;;;;2.60;79.66;95400.56;5036145;28;1069;-51
2023/01/29 05:28:12;;;;;;;;;;;;;;;2.71;79.42;95400.69;5036206;28;1999;-51
2023/01/29 05:30:39;;;;;;;;;;;;;;;2.82;77.35;95405.22;5036329;28;958;-51
2023/01/29 05:33:11;;;;;;;;;;;;;;;2.74;78.53;95405.75;5036250;28;1645;-51
2023/01/29 05:35:37;;;;;;;;;;;;;;;2.69;79.02;95410.50;5036094;28;988;-51
2023/01/29 05:38:03;;;;;;;;;;;;;;;2.69;79.34;95411.38;5035827;28;1319;-51
2023/01/29 05:40:29;;;;;;;;;;;;;;;2.68;79.74;95411.47;5035888;28;1056;-51
2023/01/29 05:42:55;;;;;;;;;;;;;;;2.68;79.42;95414.94;5035866;28;1128;-51
2023/01/29 05:45:21;;;;;;;;;;;;;;;2.68;79.17;95411.47;5035997;28;1077;-51
2023/01/29 05:47:47;;;;;;;;;;;;;;;2.75;79.52;95410.06;5035936;28;1996;-51
2023/01/29 05:50:14;;;;;;;;;;;;;;;2.73;78.96;95417.25;5035806;28;1018;-51
2023/01/29 05:52:40;;;;;;;;;;;;;;;2.66;79.65;95416.00;5035772;28;1068;-51
2023/01/29 05:55:07;;;;;;;;;;;;;;;2.71;79.47;95424.44;5035625;28;1038;-51
2023/01/29 05:57:33;;;;;;;;;;;;;;;2.74;79.42;95424.25;5035568;28;979;-51
2023/01/29 06:00:00;;;;;;;;;;;;;;;2.69;78.25;95423.69;5035584;28;1125;-50
2023/01/29 06:02:28;;;;;;;;;;;;;;;2.71;78.32;95425.31;5035483;28;1061;-51
2023/01/29 06:04:54;;;;;;;;;;;;;;;2.81;78.66;95427.28;5035685;28;1016;-51
2023/01/29 06:07:20;;;;;;;;;;;;;;;2.85;78.00;95421.69;5035406;28;1914;-52
2023/01/29 06:09:46;;;;;;;;;;;;;;;2.85;77.71;95426.13;5035439;28;1029;-51
2023/01/29 06:12:12;;;;;;;;;;;;;;;2.90;78.18;95427.50;5035545;28;981;-52
2023/01/29 06:14:38;;;;;;;;;;;;;;;2.89;77.07;95432.88;5035462;28;1118;-52
2023/01/29 06:17:04;;;;;;;;;;;;;;;2.93;76.83;95434.38;5035458;28;1003;-51
2023/01/29 06:19:30;;;;;;;;;;;;;;;2.87;77.16;95440.91;5035212;28;1094;-51
2023/01/29 06:21:56;;;;;;;;;;;;;;;2.89;76.42;95433.72;5035206;28;1049;-52
2023/01/29 06:24:22;;;;;;;;;;;;;;;2.96;75.95;95446.50;5034978;28;974;-52
2023/01/29 06:26:48;;;;;;;;;;;;;;;2.87;76.58;95448.84;5035059;28;1038;-52
2023/01/29 06:29:14;;;;;;;;;;;;;;;2.88;77.34;95445.25;5035115;28;1902;-52
2023/01/29 06:31:40;;;;;;;;;;;;;;;2.93;76.79;95448.41;5035033;28;1548;-52
2023/01/29 06:34:07;;;;;;;;;;;;;;;2.91;76.86;95452.94;5035074;28;962;-52
2023/01/29 06:36:33;;;;;;;;;;;;;;;2.94;77.12;95457.19;5034693;28;1197;-52
2023/01/29 06:38:59;;;;;;;;;;;;;;;2.87;77.36;95454.13;5034885;28;1085;-52
2023/01/29 06:41:25;;;;;;;;;;;;;;;2.80;77.07;95452.00;5034701;28;1049;-52
2023/01/29 06:43:51;;;;;;;;;;;;;;;2.94;76.69;95454.56;5034715;28;1128;-52
2023/01/29 06:46:17;;;;;;;;;;;;;;;3.01;77.41;95457.59;5033742;28;1072;-52
2023/01/29 06:48:43;;;;;;;;;;;;;;;3.08;76.47;95464.16;5034480;28;1902;-52
2023/01/29 06:51:09;;;;;;;;;;;;;;;3.13;77.03;95462.88;5034752;28;1029;-52
2023/01/29 06:53:37;;;;;;;;;;;;;;;3.24;75.80;95467.38;5034529;28;1045;-52
2023/01/29 06:56:03;;;;;;;;;;;;;;;3.05;75.83;95467.00;5034523;28;978;-52
2023/01/29 06:58:29;;;;;;;;;;;;;;;2.95;76.61;95466.78;5034666;28;1024;-52
2023/01/29 07:01:08;;;;;;;;;;;;;;;3.02;77.48;95469.88;5034656;28;992;-52
2023/01/29 07:03:34;;;;;;;;;;;;;;;3.12;76.80;95474.38;5034785;28;998;-51
2023/01/29 07:06:01;;;;;;;;;;;;;;;3.24;77.04;95474.47;5034413;28;1337;-52
2023/01/29 07:08:27;;;;;;;;;;;;;;;3.31;75.46;95470.44;5033766;28;1898;-52
2023/01/29 07:10:58;;;;;;;;;;;;;;;3.30;75.94;95471.38;5034263;28;1081;-52
2023/01/29 07:13:24;;;;;;;;;;;;;;;3.30;75.47;95469.59;5034356;28;973;-52
2023/01/29 07:15:50;;;;;;;;;;;;;;;3.31;75.29;95473.91;5034365;28;1013;-52
2023/01/29 07:18:16;;;;;;;;;;;;;;;3.37;75.93;95474.44;5034239;28;1044;-52
2023/01/29 07:20:42;;;;;;;;;;;;;;;3.36;75.73;95473.63;5033976;28;1025;-52
2023/01/29 07:23:12;;;;;;;;;;;;;;;3.36;75.55;95470.09;5034099;28;1014;-52
2023/01/29 07:25:38;;;;;;;;;;;;;;;3.35;73.75;95476.34;5034168;28;1060;-52
2023/01/29 07:28:05;;;;;;;;;;;;;;;3.38;75.42;95478.75;5034083;28;1989;-52
2023/01/29 07:30:31;;;;;;;;;;;;;;;3.51;74.45;95482.25;5033977;28;1660;-52
2023/01/29 07:33:02;;;;;;;;;;;;;;;3.44;73.03;95481.00;5033903;28;1328;-52
2023/01/29 07:35:28;;;;;;;;;;;;;;;3.46;72.45;95487.84;5033803;28;1005;-52
2023/01/29 07:37:54;;;;;;;;;;;;;;;3.70;73.53;95485.25;5033651;28;1267;-52
2023/01/29 07:40:20;;;;;;;;;;;;;;;3.77;71.82;95482.16;5033639;28;1042;-52
2023/01/29 07:42:46;;;;;;;;;;;;;;;3.75;71.66;95479.63;5033881;28;978;-52
2023/01/29 07:45:12;;;;;;;;;;;;;;;3.89;72.24;95482.13;5033653;28;1113;-52
2023/01/29 07:47:38;;;;;;;;;;;;;;;4.03;70.93;95489.03;5033565;28;1975;-52
2023/01/29 07:50:05;;;;;;;;;;;;;;;3.92;70.88;95486.31;5033701;28;1029;-52
2023/01/29 07:52:31;;;;;;;;;;;;;;;3.97;70.57;95493.94;5033522;28;1045;-52
2023/01/29 07:54:58;;;;;;;;;;;;;;;4.17;69.27;95500.41;5033752;28;965;-52
2023/01/29 07:57:24;;;;;;;;;;;;;;;4.21;68.73;95500.06;5033658;28;1048;-52
2023/01/29 07:59:50;;;;;;;;;;;;;;;4.27;68.71;95499.59;5033611;28;977;-52
2023/01/29 08:02:16;;;;;;;;;;;;;;;4.18;69.18;95508.22;5033550;28;986;-51
2023/01/29 08:04:42;;;;;;;;;;;;;;;4.10;68.74;95510.59;5033424;28;1052;-52
2023/01/29 08:07:08;;;;;;;;;;;;;;;4.20;69.24;95510.78;5032138;28;1930;-52
2023/01/29 08:09:35;;;;;;;;;;;;;;;4.25;68.35;95516.53;5033311;28;1078;-52
2023/01/29 08:12:02;;;;;;;;;;;;;;;4.33;67.17;95510.72;5033569;28;981;-52
2023/01/29 08:14:29;;;;;;;;;;;;;;;4.22;68.51;95500.91;5033417;28;970;-51
2023/01/29 08:16:55;;;;;;;;;;;;;;;4.08;68.32;95508.06;5033434;28;942;-52
2023/01/29 08:19:21;;;;;;;;;;;;;;;4.08;68.67;95513.34;5034848;28;1060;-52
2023/01/29 08:21:47;;;;;;;;;;;;;;;3.97;68.03;95515.09;5037445;28;1056;-52
2023/01/29 08:24:13;;;;;;;;;;;;;;;3.94;68.34;95521.44;5037588;28;1006;-52
2023/01/29 08:26:39;;;;;;;;;;;;;;;4.15;67.03;95521.69;5034406;28;1534;-52
2023/01/29 08:29:05;;;;;;;;;;;;;;;4.17;68.56;95521.56;5037089;28;1991;-52
2023/01/29 08:31:32;;;;;;;;;;;;;;;4.29;67.19;95528.63;5037101;28;1543;-52
2023/01/29 08:33:58;;;;;;;;;;;;;;;4.34;67.94;95525.63;5037222;28;1050;-52
2023/01/29 08:36:24;;;;;;;;;;;;;;;4.19;66.87;95524.94;5036867;28;1189;-52
2023/01/29 08:38:50;;;;;;;;;;;;;;;4.27;68.46;95519.94;5037049;28;1132;-52
2023/01/29 08:41:16;;;;;;;;;;;;;;;4.47;66.79;95523.75;5037029;28;1027;-53
2023/01/29 08:43:42;;;;;;;;;;;;;;;4.49;66.94;95529.78;5036935;28;1042;-52
2023/01/29 08:46:08;;;;;;;;;;;;;;;4.52;67.32;95526.91;5036975;28;1042;-52
2023/01/29 08:48:34;;;;;;;;;;;;;;;4.39;67.69;95534.91;5036517;28;1913;-52
2023/01/29 08:51:01;;;;;;;;;;;;;;;4.51;66.21;95530.50;5036823;28;1042;-52
2023/01/29 08:53:27;;;;;;;;;;;;;;;4.51;66.06;95533.16;5037006;28;989;-52
2023/01/29 08:55:53;;;;;;;;;;;;;;;4.39;66.96;95534.06;5036362;28;1228;-52
2023/01/29 08:58:19;;;;;;;;;;;;;;;4.34;67.71;95539.69;5036516;28;1030;-52
2023/01/29 09:00:45;;;;;;;;;;;;;;;4.39;67.31;95544.66;5036041;28;1040;-52
2023/01/29 09:03:11;;;;;;;;;;;;;;;4.28;67.39;95532.22;5036343;28;1061;-52
2023/01/29 09:05:38;;;;;;;;;;;;;;;4.34;67.42;95546.81;5035247;28;1099;-52
2023/01/29 09:08:05;;;;;;;;;;;;;;;4.21;68.59;95547.72;5036206;28;1913;-52
2023/01/29 09:10:31;;;;;;;;;;;;;;;4.34;67.98;95537.03;5036529;28;1035;-52
2023/01/29 09:12:57;;;;;;;;;;;;;;;4.31;68.69;95545.22;5036506;28;1068;-52
2023/01/29 09:15:23;;;;;;;;;;;;;;;4.41;68.91;95535.63;5036396;28;1018;-52
2023/01/29 09:17:49;;;;;;;;;;;;;;;4.45;69.09;95539.75;5036095;28;1229;-51
2023/01/29 09:20:16;;;;;;;;;;;;;;;4.37;68.27;95543.94;5036219;28;978;-52
2023/01/29 09:22:42;;;;;;;;;;;;;;;4.35;67.58;95545.84;5036340;28;1063;-52
2023/01/29 09:25:08;;;;;;;;;;;;;;;4.37;66.78;95550.06;5036299;28;957;-51
2023/01/29 09:27:34;;;;;;;;;;;;;;;4.43;66.05;95535.53;5035892;28;1985;-51
2023/01/29 09:30:00;;;;;;;;;;;;;;;4.34;66.66;95547.63;5035805;28;1200;-52
2023/01/29 09:32:29;;;;;;;;;;;;;;;4.32;66.68;95546.06;5035946;28;1367;-52
2023/01/29 09:34:55;;;;;;;;;;;;;;;4.34;68.06;95537.03;5035992;28;1040;-52
2023/01/29 09:37:22;;;;;;;;;;;;;;;4.41;67.21;95533.00;5035844;28;1224;-52
2023/01/29 09:39:50;;;;;;;;;;;;;;;4.29;67.31;95529.47;5035701;28;1014;-51
2023/01/29 09:42:16;;;;;;;;;;;;;;;4.39;68.37;95520.84;5036064;28;1056;-51
2023/01/29 09:45:01;;;;;;;;;;;;;;;4.55;67.13;95520.53;5035804;28;957;-52
2023/01/29 09:47:27;;;;;;;;;;;;;;;4.59;66.96;95511.38;5035523;28;1914;-52
2023/01/29 09:49:58;;;;;;;;;;;;;;;4.49;66.71;95516.53;5035414;28;1097;-51
2023/01/29 09:52:26;;;;;;;;;;;;;;;4.48;67.13;95514.84;5035512;28;1030;-52
2023/01/29 09:55:11;;;;;;;;;;;;;;;4.39;67.35;95521.66;5035823;28;1025;-51
2023/01/29 09:57:44;;;;;;;;;;;;;;;4.46;66.99;95517.63;5035505;28;1603;-51
2023/01/29 10:00:32;;;;;;;;;;;;;;;4.54;65.95;95511.75;5035870;28;1065;-52
2023/01/29 10:03:01;;;;;;;;;;;;;;;4.36;66.83;95513.94;5035786;28;1037;-51
2023/01/29 10:05:36;;;;;;;;;;;;;;;4.27;66.35;95517.31;5035372;28;1058;-52
2023/01/29 10:08:05;;;;;;;;;;;;;;;4.31;66.05;95508.16;5035171;28;1914;-51
2023/01/29 10:10:52;;;;;;;;;;;;;;;4.42;66.94;95500.28;5035207;28;1113;-51
2023/01/29 10:13:31;;;;;;;;;;;;;;;4.36;66.32;95498.06;5035202;28;1099;-52
2023/01/29 10:16:19;;;;;;;;;;;;;;;4.39;66.46;95497.00;5035361;28;1133;-52
2023/01/29 10:18:48;;;;;;;;;;;;;;;4.43;64.72;95498.47;5035116;28;1073;-52
2023/01/29 10:21:23;;;;;;;;;;;;;;;4.44;65.99;95497.47;5035460;28;1017;-51
2023/01/29 10:23:53;;;;;;;;;;;;;;;4.56;65.57;95491.28;5035357;28;1045;-51
2023/01/29 10:26:22;;;;;;;;;;;;;;;4.77;64.54;95480.84;5034999;28;1101;-51
2023/01/29 10:28:49;;;;;;;;;;;;;;;4.83;64.63;95480.38;5034746;28;1914;-51
2023/01/29 10:31:26;;;;;;;;;;;;;;;4.88;64.07;95475.56;5034951;28;1647;-51
2023/01/29 10:33:54;;;;;;;;;;;;;;;4.93;63.45;95482.31;5034987;28;1097;-51
2023/01/29 10:36:25;;;;;;;;;;;;;;;4.85;63.58;95475.81;5034792;28;1185;-52
2023/01/29 10:38:51;;;;;;;;;;;;;;;5.00;62.82;95479.06;5034611;28;1122;-52
2023/01/29 10:41:32;;;;;;;;;;;;;;;5.00;62.57;95475.59;5034237;28;969;-51
2023/01/29 10:44:04;;;;;;;;;;;;;;;5.07;61.83;95475.00;5034936;28;965;-51
2023/01/29 10:46:36;;;;;;;;;;;;;;;4.95;62.35;95475.97;5034865;28;1060;-51
2023/01/29 10:49:27;;;;;;;;;;;;;;;5.38;62.39;95467.28;5034483;28;1914;-51
2023/01/29 10:52:09;;;;;;;;;;;;;;;5.70;61.11;95465.69;5033585;28;989;-51
2023/01/29 10:54:42;;;;;;;;;;;;;;;5.72;61.59;95469.06;5034704;28;1021;-51
2023/01/29 10:57:08;;;;;;;;;;;;;;;6.29;58.87;95467.09;5034625;28;965;-51
2023/01/29 10:59:34;;;;;;;;;;;;;;;6.58;57.68;95462.00;5034219;28;1083;-51
2023/01/29 11:02:02;;;;;;;;;;;;;;;6.24;58.07;95452.41;5034566;28;1013;-52
2023/01/29 11:04:30;;;;;;;;;;;;;;;6.28;58.95;95454.78;5034359;28;986;-51
2023/01/29 11:06:57;;;;;;;;;;;;;;;6.22;60.08;95458.78;5034316;28;1070;-51
2023/01/29 11:09:23;;;;;;;;;;;;;;;6.79;58.48;95452.22;5033850;28;1985;-52
2023/01/29 11:11:51;;;;;;;;;;;;;;;6.83;57.89;95447.50;5034433;28;1049;-52
2023/01/29 11:14:28;;;;;;;;;;;;;;;6.60;59.51;95446.78;5034328;28;1234;-52
2023/01/29 11:16:54;;;;;;;;;;;;;;;6.80;58.88;95440.63;5034275;28;1041;-52
2023/01/29 11:19:40;;;;;;;;;;;;;;;6.56;58.05;95448.00;5033695;28;1078;-52
2023/01/29 11:22:12;;;;;;;;;;;;;;;6.19;60.12;95440.47;5034251;28;1025;-52
2023/01/29 11:24:38;;;;;;;;;;;;;;;6.08;60.66;95437.88;5034064;28;970;-52
2023/01/29 11:27:13;;;;;;;;;;;;;;;5.93;60.31;95439.94;5034100;28;1023;-51
2023/01/29 11:29:48;;;;;;;;;;;;;;;5.61;61.40;95438.91;5033570;28;1484;-51
2023/01/29 11:32:17;;;;;;;;;;;;;;;5.58;61.74;95436.53;5033745;28;1851;-51
2023/01/29 11:35:04;;;;;;;;;;;;;;;5.49;61.27;95439.91;5033679;28;966;-51
2023/01/29 11:41:06;;;;;;;;;;;;;;;5.43;62.40;95432.44;5030971;28;1395;-51
2023/01/29 11:43:33;;;;;;;;;;;;;;;5.44;61.94;95439.41;5033658;28;1114;-51
2023/01/29 11:46:04;;;;;;;;;;;;;;;5.44;62.76;95428.81;5033769;28;994;-52
2023/01/29 11:48:32;;;;;;;;;;;;;;;5.37;61.46;95427.63;5033466;28;1914;-51
2023/01/29 11:50:59;;;;;;;;;;;;;;;5.34;61.68;95428.72;5033220;28;1177;-51
2023/01/29 11:53:35;;;;;;;;;;;;;;;5.37;61.59;95433.78;5033156;28;1582;-51
2023/01/29 11:56:05;;;;;;;;;;;;;;;5.34;61.87;95430.53;5033452;28;1043;-51
2023/01/29 11:58:33;;;;;;;;;;;;;;;5.14;61.41;95432.09;5033400;28;1354;-51
2023/01/29 12:01:00;;;;;;;;;;;;;;;5.05;62.30;95428.38;5033495;28;970;-51
2023/01/29 12:03:44;;;;;;;;;;;;;;;5.04;61.46;95432.81;5033104;28;1137;-51
2023/01/29 12:06:17;;;;;;;;;;;;;;;5.19;62.49;95427.28;5033589;28;960;-51
2023/01/29 12:08:43;;;;;;;;;;;;;;;5.28;61.82;95421.25;5033202;28;1902;-51
2023/01/29 12:11:09;;;;;;;;;;;;;;;5.41;62.77;95413.16;5033388;28;1597;-52
2023/01/29 12:13:35;;;;;;;;;;;;;;;5.46;61.56;95416.28;5033090;28;1167;-52
2023/01/29 12:16:08;;;;;;;;;;;;;;;5.70;60.96;95413.44;5033588;28;1133;-52
2023/01/29 12:18:54;;;;;;;;;;;;;;;5.55;61.12;95409.41;5033230;28;1105;-51
2023/01/29 12:21:28;;;;;;;;;;;;;;;5.67;62.99;95403.94;5012453;28;1135;-51
2023/01/29 12:24:24;;;;;;;;;;;;;;;5.60;62.54;95407.22;5013670;28;997;-51
2023/01/29 12:27:08;;;;;;;;;;;;;;;5.43;63.78;95397.97;5013817;28;1045;-51
2023/01/29 12:29:46;;;;;;;;;;;;;;;5.25;63.32;95403.78;5013286;28;2037;-51
2023/01/29 12:32:22;;;;;;;;;;;;;;;5.35;63.43;95395.06;5021434;28;1307;-51
2023/01/29 12:34:56;;;;;;;;;;;;;;;5.42;63.90;95396.28;5033111;28;986;-51
2023/01/29 12:37:22;;;;;;;;;;;;;;;5.51;63.19;95398.19;5033300;28;997;-51
2023/01/29 12:39:49;;;;;;;;;;;;;;;5.48;64.78;95403.72;5033037;28;1205;-51
2023/01/29 12:42:18;;;;;;;;;;;;;;;5.67;63.23;95400.44;5032972;28;1111;-52
2023/01/29 12:45:06;;;;;;;;;;;;;;;5.67;63.25;95397.78;5033055;28;1221;-50
2023/01/29 12:47:32;;;;;;;;;;;;;;;5.72;62.81;95397.41;5032926;28;1910;-51
2023/01/29 12:50:04;;;;;;;;;;;;;;;5.75;62.72;95399.81;5033128;28;1060;-51
2023/01/29 12:53:02;;;;;;;;;;;;;;;5.59;64.58;95398.41;5032671;28;1182;-51
2023/01/29 12:55:52;;;;;;;;;;;;;;;5.47;64.02;95400.25;5010095;28;1391;-51
2023/01/29 12:58:27;;;;;;;;;;;;;;;5.61;64.04;95406.25;5032976;28;1046;-52
2023/01/29 13:00:55;;;;;;;;;;;;;;;5.73;61.78;95405.25;5033042;28;1053;-52
2023/01/29 13:03:24;;;;;;;;;;;;;;;5.50;62.93;95407.09;5032540;28;1098;-52
2023/01/29 13:05:53;;;;;;;;;;;;;;;5.52;63.41;95404.31;5035106;28;1021;-50
2023/01/29 13:08:26;;;;;;;;;;;;;;;5.41;64.72;95411.34;5036478;28;1907;-51
2023/01/29 13:10:53;;;;;;;;;;;;;;;5.52;63.73;95409.63;5036555;28;938;-51
2023/01/29 13:13:35;;;;;;;;;;;;;;;5.54;64.44;95408.56;5036149;28;1136;-51
2023/01/29 13:16:04;;;;;;;;;;;;;;;5.42;63.22;95404.22;5036604;28;1009;-51
2023/01/29 13:18:39;;;;;;;;;;;;;;;5.37;65.03;95404.63;5036314;28;1036;-52
2023/01/29 13:21:10;;;;;;;;;;;;;;;5.37;64.81;95407.25;5036543;28;1048;-52
2023/01/29 13:23:38;;;;;;;;;;;;;;;5.44;63.72;95403.16;5036017;28;1290;-52
2023/01/29 13:26:04;;;;;;;;;;;;;;;5.58;63.48;95399.38;5036345;28;1072;-52
2023/01/29 13:28:31;;;;;;;;;;;;;;;5.55;63.32;95409.41;5036139;28;1918;-52
2023/01/29 13:31:09;;;;;;;;;;;;;;;5.63;62.17;95407.81;5036205;28;941;-52
2023/01/29 13:33:36;;;;;;;;;;;;;;;5.53;62.79;95406.88;5035736;28;1595;-52
2023/01/29 13:36:02;;;;;;;;;;;;;;;5.52;62.33;95405.19;5036129;28;1874;-52
2023/01/29 13:38:32;;;;;;;;;;;;;;;5.50;62.77;95396.50;5036073;28;953;-51
2023/01/29 13:41:05;;;;;;;;;;;;;;;5.43;63.46;95404.13;5035889;28;1078;-52
2023/01/29 13:43:34;;;;;;;;;;;;;;;5.37;64.08;95401.09;5035309;28;1083;-52
2023/01/29 13:46:06;;;;;;;;;;;;;;;5.40;65.59;95403.50;5035924;28;1208;-52
2023/01/29 13:48:35;;;;;;;;;;;;;;;5.17;63.87;95410.66;5035967;28;1983;-51
2023/01/29 13:51:03;;;;;;;;;;;;;;;5.19;64.23;95404.25;5035821;28;1082;-51
2023/01/29 13:53:32;;;;;;;;;;;;;;;5.33;63.66;95407.63;5035602;28;1354;-50
2023/01/29 13:56:16;;;;;;;;;;;;;;;5.31;62.82;95407.72;5035760;28;1041;-51
2023/01/29 13:58:42;;;;;;;;;;;;;;;5.18;64.97;95407.88;5035794;28;978;-51